Time;durP1;ratioP1;P1;durP2;ratioP2;P2;SDS_P1;SDS_P2;PMS_P1;PMS_P2;Temp;Humidity;BMP_temperature;BMP_pressure;BME280_temperature;BME280_humidity;BME280_pressure;Samples;Min_cycle;Max_cycle;Signal;HPM_P1;HPM_P2
2021/09/04 00:00:55;;;;;;;59.30;3.00;;;13.10;1.00;;;;;;5074657;28;20477;-71
2021/09/04 00:03:22;;;;;;;58.67;3.30;;;13.10;1.00;;;;;;5074671;28;20570;-71
2021/09/04 00:05:49;;;;;;;58.60;3.50;;;13.10;1.00;;;;;;5074553;28;20943;-71
2021/09/04 00:08:16;;;;;;;59.00;3.63;;;13.00;1.00;;;;;;5074537;28;20498;-72
2021/09/04 00:10:43;;;;;;;58.67;3.27;;;13.00;1.00;;;;;;5074307;28;20574;-72
2021/09/04 00:13:11;;;;;;;62.00;5.13;;;12.90;1.00;;;;;;5074438;28;20463;-71
2021/09/04 00:15:38;;;;;;;60.60;3.47;;;13.00;1.00;;;;;;5074514;28;20482;-71
2021/09/04 00:18:04;;;;;;;58.40;3.07;;;12.90;1.00;;;;;;5074609;28;20824;-71
2021/09/04 00:20:31;;;;;;;58.17;2.90;;;13.00;1.00;;;;;;5074549;28;20885;-71
2021/09/04 00:22:58;;;;;;;59.20;3.37;;;13.00;1.00;;;;;;5074364;28;20476;-72
2021/09/04 00:25:25;;;;;;;58.47;2.93;;;13.00;1.00;;;;;;5074520;28;20465;-71
2021/09/04 00:27:52;;;;;;;58.57;3.27;;;13.00;1.00;;;;;;5074341;28;20530;-72
2021/09/04 00:30:20;;;;;;;58.57;3.20;;;13.00;1.00;;;;;;5074065;28;20491;-72
2021/09/04 00:32:47;;;;;;;58.50;3.00;;;12.90;1.00;;;;;;5074195;28;20752;-72
2021/09/04 00:35:14;;;;;;;58.23;2.70;;;12.80;1.00;;;;;;5074154;28;20833;-71
2021/09/04 00:37:41;;;;;;;58.87;3.37;;;12.80;1.00;;;;;;5074071;28;20494;-71
2021/09/04 00:40:09;;;;;;;58.57;2.70;;;12.80;1.00;;;;;;5073746;28;20471;-71
2021/09/04 00:42:36;;;;;;;62.87;4.40;;;12.80;1.00;;;;;;5073947;28;20554;-71
2021/09/04 00:45:03;;;;;;;58.57;2.80;;;12.70;1.00;;;;;;5074114;28;20533;-72
2021/09/04 00:47:31;;;;;;;58.13;2.70;;;12.60;1.00;;;;;;5073881;28;20527;-71
2021/09/04 00:49:58;;;;;;;58.27;2.67;;;12.70;1.00;;;;;;5073536;28;20485;-71
2021/09/04 00:52:25;;;;;;;58.43;2.60;;;12.60;1.00;;;;;;5073620;28;20506;-72
2021/09/04 00:54:52;;;;;;;58.53;2.80;;;12.60;1.00;;;;;;5073658;28;20474;-72
2021/09/04 00:57:19;;;;;;;59.00;3.57;;;12.60;1.00;;;;;;5073828;28;20534;-71
2021/09/04 00:59:46;;;;;;;58.53;2.90;;;12.50;1.00;;;;;;5072521;28;20447;-71
2021/09/04 01:02:13;;;;;;;59.40;3.43;;;12.50;1.00;;;;;;5073519;28;20558;-71
2021/09/04 01:04:41;;;;;;;58.47;2.70;;;12.50;1.00;;;;;;5073479;28;20877;-72
2021/09/04 01:07:08;;;;;;;58.50;2.80;;;12.40;1.00;;;;;;5073859;28;20482;-72
2021/09/04 01:09:35;;;;;;;58.93;4.00;;;12.40;1.00;;;;;;5073092;28;20454;-72
2021/09/04 01:12:03;;;;;;;58.60;3.00;;;12.40;1.00;;;;;;5073398;28;20529;-71
2021/09/04 01:14:30;;;;;;;58.77;3.47;;;12.40;1.00;;;;;;5073131;28;20453;-72
2021/09/04 01:16:56;;;;;;;58.67;3.23;;;12.40;1.00;;;;;;5073271;28;20535;-72
2021/09/04 01:19:23;;;;;;;58.33;3.00;;;12.40;1.00;;;;;;5072948;28;20439;-71
2021/09/04 01:21:51;;;;;;;58.70;3.50;;;12.30;1.00;;;;;;5073029;28;20453;-72
2021/09/04 01:24:18;;;;;;;58.57;2.90;;;12.30;1.00;;;;;;5073031;28;20530;-72
2021/09/04 01:26:47;;;;;;;58.47;2.90;;;12.30;1.00;;;;;;5073434;28;20538;-71
2021/09/04 01:29:14;;;;;;;58.53;3.10;;;12.30;1.00;;;;;;5072647;28;20438;-72
2021/09/04 01:31:41;;;;;;;58.87;3.20;;;12.30;1.00;;;;;;5072930;28;20577;-72
2021/09/04 01:34:08;;;;;;;58.10;3.10;;;12.30;1.00;;;;;;5072813;28;20554;-72
2021/09/04 01:36:37;;;;;;;60.90;3.10;;;12.30;1.00;;;;;;5072875;28;20474;-71
2021/09/04 01:39:05;;;;;;;58.70;3.00;;;12.30;1.00;;;;;;5072844;28;20542;-71
2021/09/04 01:41:33;;;;;;;58.50;3.10;;;12.20;1.00;;;;;;5072908;28;20493;-72
2021/09/04 01:44:01;;;;;;;58.80;3.20;;;12.20;1.00;;;;;;5072627;28;20463;-72
2021/09/04 01:46:29;;;;;;;58.67;2.80;;;12.20;1.00;;;;;;5071399;28;20451;-71
2021/09/04 01:48:57;;;;;;;58.70;3.20;;;12.20;1.00;;;;;;5072707;28;20462;-71
2021/09/04 01:51:24;;;;;;;58.90;3.30;;;12.10;1.00;;;;;;5072508;28;20482;-71
2021/09/04 01:53:51;;;;;;;59.87;3.90;;;12.20;1.00;;;;;;5072747;28;20546;-72
2021/09/04 01:56:18;;;;;;;58.70;3.10;;;12.20;1.00;;;;;;5072458;28;20449;-72
2021/09/04 01:58:47;;;;;;;58.90;3.60;;;12.20;1.00;;;;;;5072314;28;20541;-72
2021/09/04 02:01:15;;;;;;;58.67;3.10;;;12.20;1.00;;;;;;5072459;28;20546;-72
2021/09/04 02:03:42;;;;;;;59.23;4.20;;;12.20;1.00;;;;;;5072214;28;20485;-71
2021/09/04 02:06:09;;;;;;;58.80;3.30;;;12.10;1.00;;;;;;5072518;28;20455;-71
2021/09/04 02:08:35;;;;;;;58.43;2.80;;;12.10;1.00;;;;;;5072370;28;20542;-71
2021/09/04 02:11:02;;;;;;;58.63;3.00;;;12.10;1.00;;;;;;5071948;28;21058;-70
2021/09/04 02:13:29;;;;;;;58.67;2.80;;;12.10;1.00;;;;;;5072062;28;20913;-71
2021/09/04 02:15:56;;;;;;;58.97;3.00;;;12.10;1.00;;;;;;5072069;28;21123;-71
2021/09/04 02:18:25;;;;;;;58.60;3.07;;;12.10;1.00;;;;;;5072419;28;20439;-70
2021/09/04 02:20:51;;;;;;;58.67;3.30;;;12.00;1.00;;;;;;5072063;28;20450;-71
2021/09/04 02:23:18;;;;;;;58.93;3.07;;;12.00;1.00;;;;;;5071986;28;20581;-70
2021/09/04 02:25:45;;;;;;;58.47;2.80;;;11.90;1.00;;;;;;5072487;28;20478;-70
2021/09/04 02:28:14;;;;;;;58.33;2.80;;;12.00;1.00;;;;;;5071897;28;21084;-72
2021/09/04 02:30:41;;;;;;;58.47;2.87;;;11.90;1.00;;;;;;5072032;28;20514;-71
2021/09/04 02:33:10;;;;;;;58.90;2.90;;;11.80;1.00;;;;;;5071807;28;20475;-71
2021/09/04 02:35:38;;;;;;;58.67;3.10;;;11.80;1.00;;;;;;5072011;28;20819;-70
2021/09/04 02:38:05;;;;;;;58.47;2.80;;;11.80;1.00;;;;;;5072001;28;20565;-72
2021/09/04 02:40:32;;;;;;;58.53;2.80;;;11.80;1.00;;;;;;5071663;28;20453;-71
2021/09/04 02:42:59;;;;;;;58.47;2.87;;;11.80;1.00;;;;;;5071870;28;20551;-72
2021/09/04 02:45:25;;;;;;;58.53;2.90;;;11.70;1.00;;;;;;5071811;28;20971;-71
2021/09/04 02:47:52;;;;;;;58.63;2.97;;;11.60;1.00;;;;;;5071876;28;20939;-71
2021/09/04 02:50:20;;;;;;;58.67;2.77;;;11.60;1.00;;;;;;5071515;28;20447;-71
2021/09/04 02:52:48;;;;;;;59.40;3.20;;;11.60;1.00;;;;;;5071698;28;20475;-71
2021/09/04 02:55:15;;;;;;;58.43;3.10;;;11.60;1.00;;;;;;5071646;28;20447;-71
2021/09/04 02:57:42;;;;;;;60.67;3.70;;;11.60;1.00;;;;;;5071991;28;20483;-71
2021/09/04 03:00:10;;;;;;;58.67;3.10;;;11.60;1.00;;;;;;5071443;28;20542;-71
2021/09/04 03:02:37;;;;;;;58.47;3.17;;;11.60;1.00;;;;;;5071551;28;20471;-71
2021/09/04 03:05:04;;;;;;;58.63;3.00;;;11.60;1.00;;;;;;5071849;28;20533;-71
2021/09/04 03:07:31;;;;;;;59.33;3.30;;;11.50;1.00;;;;;;5071608;28;20446;-71
2021/09/04 03:09:59;;;;;;;59.00;3.53;;;11.50;1.00;;;;;;5071296;28;20819;-71
2021/09/04 03:12:26;;;;;;;58.57;2.90;;;11.50;1.00;;;;;;5071431;28;21081;-71
2021/09/04 03:14:53;;;;;;;58.90;3.73;;;11.50;1.00;;;;;;5071722;28;20490;-71
2021/09/04 03:17:21;;;;;;;58.70;3.10;;;11.40;1.00;;;;;;5071783;28;20451;-71
2021/09/04 03:19:47;;;;;;;58.90;3.20;;;11.40;1.00;;;;;;5071222;28;20447;-72
2021/09/04 03:22:14;;;;;;;59.10;3.20;;;11.40;1.00;;;;;;5073125;28;20502;-71
2021/09/04 03:24:41;;;;;;;58.53;3.00;;;11.30;1.00;;;;;;5075683;28;20527;-71
2021/09/04 03:27:09;;;;;;;58.77;3.07;;;11.30;1.00;;;;;;5075379;28;20458;-70
2021/09/04 03:29:36;;;;;;;58.53;2.77;;;11.30;1.00;;;;;;5075114;28;20443;-71
2021/09/04 03:32:03;;;;;;;58.90;2.77;;;11.30;1.00;;;;;;5075095;28;20860;-71
2021/09/04 03:34:30;;;;;;;58.57;2.70;;;11.30;1.00;;;;;;5075232;28;20450;-70
2021/09/04 03:36:57;;;;;;;59.60;4.03;;;11.40;1.00;;;;;;5075243;28;20537;-71
2021/09/04 03:39:24;;;;;;;58.53;2.90;;;11.40;1.00;;;;;;5074871;28;20534;-71
2021/09/04 03:41:51;;;;;;;58.77;2.80;;;11.30;1.00;;;;;;5086820;28;20442;-71
2021/09/04 03:44:19;;;;;;;58.33;2.77;;;11.30;1.00;;;;;;5083843;28;20566;-72
2021/09/04 03:46:46;;;;;;;58.67;2.90;;;11.20;1.00;;;;;;5080439;28;20976;-71
2021/09/04 03:49:12;;;;;;;58.57;2.80;;;11.20;1.00;;;;;;5074681;28;20447;-70
2021/09/04 03:51:39;;;;;;;58.30;2.70;;;11.20;1.00;;;;;;5075273;28;20927;-70
2021/09/04 03:54:06;;;;;;;58.37;2.80;;;11.10;1.00;;;;;;5074608;28;20467;-70
2021/09/04 03:56:33;;;;;;;58.60;2.70;;;11.10;1.00;;;;;;5074755;28;20542;-70
2021/09/04 03:59:00;;;;;;;58.53;2.80;;;11.10;1.00;;;;;;5074703;28;20479;-71
2021/09/04 04:01:28;;;;;;;58.43;3.00;;;11.10;1.00;;;;;;5074634;28;20827;-71
2021/09/04 04:03:55;;;;;;;58.47;2.70;;;11.00;1.00;;;;;;5074464;28;20590;-71
2021/09/04 04:06:22;;;;;;;59.07;3.60;;;11.00;1.00;;;;;;5074416;28;20454;-71
2021/09/04 04:08:48;;;;;;;58.67;3.20;;;11.00;1.00;;;;;;5074662;28;20542;-71
2021/09/04 04:11:15;;;;;;;58.63;2.90;;;11.00;1.00;;;;;;5074328;28;20478;-71
2021/09/04 04:13:42;;;;;;;58.60;3.20;;;11.00;1.00;;;;;;5074418;28;20467;-71
2021/09/04 04:16:09;;;;;;;58.70;2.80;;;10.90;1.00;;;;;;5074329;28;20874;-71
2021/09/04 04:18:37;;;;;;;58.77;3.10;;;10.90;1.00;;;;;;5074454;28;21006;-71
2021/09/04 04:21:04;;;;;;;58.53;2.97;;;10.90;1.00;;;;;;5074480;28;20446;-71
2021/09/04 04:23:32;;;;;;;58.37;2.83;;;10.80;1.00;;;;;;5074257;28;20553;-71
2021/09/04 04:25:59;;;;;;;58.77;3.20;;;10.80;1.00;;;;;;5074108;28;20455;-70
2021/09/04 04:28:26;;;;;;;58.47;2.80;;;10.80;1.00;;;;;;5074403;28;20897;-71
2021/09/04 04:30:53;;;;;;;58.60;2.70;;;10.80;1.00;;;;;;5073775;28;20486;-71
2021/09/04 04:33:20;;;;;;;58.37;2.80;;;10.80;1.00;;;;;;5072621;28;21035;-71
2021/09/04 04:35:48;;;;;;;58.63;2.87;;;10.80;1.00;;;;;;5074242;28;20506;-71
2021/09/04 04:38:15;;;;;;;58.97;3.20;;;10.80;1.00;;;;;;5074219;28;20456;-71
2021/09/04 04:40:42;;;;;;;58.53;2.97;;;10.80;1.00;;;;;;5073733;28;20450;-71
2021/09/04 04:43:09;;;;;;;58.73;3.10;;;10.80;1.00;;;;;;5074010;28;20507;-71
2021/09/04 04:45:36;;;;;;;58.33;3.10;;;10.80;1.00;;;;;;5073790;28;20797;-71
2021/09/04 04:48:03;;;;;;;58.37;3.00;;;10.80;1.00;;;;;;5073811;28;20486;-71
2021/09/04 04:50:30;;;;;;;58.80;3.33;;;10.80;1.00;;;;;;5073631;28;20453;-71
2021/09/04 04:52:58;;;;;;;58.63;2.93;;;10.80;1.00;;;;;;5073483;28;20487;-71
2021/09/04 04:55:25;;;;;;;58.57;3.10;;;10.80;1.00;;;;;;5073760;28;20489;-71
2021/09/04 04:57:52;;;;;;;58.43;2.80;;;10.80;1.00;;;;;;5073620;28;20894;-71
2021/09/04 05:00:19;;;;;;;58.43;2.90;;;10.70;1.00;;;;;;5073341;28;20482;-70
2021/09/04 05:02:46;;;;;;;58.60;2.90;;;10.70;1.00;;;;;;5073280;28;21100;-71
2021/09/04 05:05:13;;;;;;;58.80;3.00;;;10.70;1.00;;;;;;5073409;28;20450;-70
2021/09/04 05:07:39;;;;;;;58.60;2.93;;;10.70;1.00;;;;;;5073330;28;20537;-71
2021/09/04 05:10:09;;;;;;;58.80;3.00;;;10.70;1.00;;;;;;5073400;28;20975;-71
2021/09/04 05:12:36;;;;;;;58.53;2.87;;;10.70;1.00;;;;;;5073093;28;20493;-71
2021/09/04 05:15:03;;;;;;;58.47;2.90;;;10.70;1.00;;;;;;5073473;28;20650;-71
2021/09/04 05:17:29;;;;;;;58.27;2.87;;;10.70;1.00;;;;;;5073377;28;20450;-70
2021/09/04 05:19:56;;;;;;;58.57;3.20;;;10.70;1.00;;;;;;5073052;28;20455;-71
2021/09/04 05:22:23;;;;;;;58.57;2.90;;;10.70;1.00;;;;;;5073061;28;20553;-71
2021/09/04 05:24:50;;;;;;;58.97;3.80;;;10.70;1.00;;;;;;5072995;28;20947;-71
2021/09/04 05:27:18;;;;;;;58.50;3.10;;;10.70;1.00;;;;;;5073219;28;20883;-70
2021/09/04 05:29:45;;;;;;;58.53;3.10;;;10.80;1.00;;;;;;5073158;28;20446;-71
2021/09/04 05:32:12;;;;;;;58.60;3.20;;;10.80;1.00;;;;;;5072920;28;20518;-71
2021/09/04 05:34:39;;;;;;;58.77;3.20;;;10.80;1.00;;;;;;5073042;28;20863;-71
2021/09/04 05:37:06;;;;;;;58.73;3.37;;;10.80;1.00;;;;;;5072705;28;20538;-70
2021/09/04 05:39:32;;;;;;;58.43;2.83;;;10.90;1.00;;;;;;5072546;28;20633;-71
2021/09/04 05:41:59;;;;;;;58.57;2.97;;;10.90;1.00;;;;;;5072834;28;20908;-71
2021/09/04 05:44:27;;;;;;;58.53;2.93;;;10.90;1.00;;;;;;5072400;28;20479;-71
2021/09/04 05:46:54;;;;;;;58.60;3.00;;;10.90;1.00;;;;;;5073311;28;20457;-72
2021/09/04 05:49:21;;;;;;;58.47;3.00;;;11.00;1.00;;;;;;5072531;28;20457;-71
2021/09/04 05:51:48;;;;;;;58.50;3.20;;;11.00;1.00;;;;;;5072430;28;20916;-70
2021/09/04 05:54:15;;;;;;;58.43;2.87;;;11.10;1.00;;;;;;5072230;28;20559;-71
2021/09/04 05:56:42;;;;;;;58.60;3.00;;;11.10;1.00;;;;;;5072603;28;20446;-71
2021/09/04 05:59:08;;;;;;;58.40;2.77;;;11.20;1.00;;;;;;5072363;28;20546;-71
2021/09/04 06:01:37;;;;;;;58.43;2.90;;;11.20;1.00;;;;;;5072551;28;20534;-71
2021/09/04 06:04:04;;;;;;;58.53;3.53;;;11.20;1.00;;;;;;5072864;28;20479;-71
2021/09/04 06:06:30;;;;;;;58.43;3.00;;;11.30;1.00;;;;;;5072116;28;20534;-70
2021/09/04 06:08:59;;;;;;;58.37;2.90;;;11.40;1.00;;;;;;5072436;28;20533;-71
2021/09/04 06:11:25;;;;;;;58.57;3.50;;;11.40;1.00;;;;;;5072246;28;20830;-71
2021/09/04 06:13:52;;;;;;;58.17;2.77;;;11.40;1.00;;;;;;5072129;28;20558;-70
2021/09/04 06:16:19;;;;;;;58.73;3.27;;;11.50;1.00;;;;;;5072690;28;20529;-71
2021/09/04 06:18:47;;;;;;;58.37;2.70;;;11.50;1.00;;;;;;5072581;28;20478;-71
2021/09/04 06:21:14;;;;;;;58.87;3.17;;;11.60;1.00;;;;;;5071873;28;20534;-71
2021/09/04 06:23:41;;;;;;;58.80;3.00;;;11.60;1.00;;;;;;5072211;28;20826;-70
2021/09/04 06:26:08;;;;;;;58.87;3.10;;;11.70;1.00;;;;;;5072152;28;20443;-71
2021/09/04 06:28:35;;;;;;;58.17;2.90;;;11.70;1.00;;;;;;5072144;28;20742;-71
2021/09/04 06:31:02;;;;;;;58.43;2.87;;;11.80;1.00;;;;;;5071831;28;20534;-71
2021/09/04 06:33:29;;;;;;;58.67;3.10;;;11.80;1.00;;;;;;5072223;28;20491;-71
2021/09/04 06:35:57;;;;;;;58.27;2.90;;;11.90;1.00;;;;;;5071887;28;20561;-71
2021/09/04 06:38:24;;;;;;;59.10;3.77;;;11.90;1.00;;;;;;5072467;28;20443;-71
2021/09/04 06:40:50;;;;;;;58.60;2.90;;;12.00;1.00;;;;;;5071690;28;20443;-71
2021/09/04 06:43:17;;;;;;;58.27;2.70;;;12.10;1.00;;;;;;5072047;28;20553;-71
2021/09/04 06:45:44;;;;;;;58.53;3.50;;;12.20;1.00;;;;;;5072171;28;20450;-71
2021/09/04 06:48:11;;;;;;;58.30;2.80;;;12.20;1.00;;;;;;5071865;28;20538;-71
2021/09/04 06:50:38;;;;;;;58.43;2.77;;;12.30;1.00;;;;;;5071667;28;20455;-72
2021/09/04 06:53:06;;;;;;;58.33;2.97;;;12.40;1.00;;;;;;5072020;28;20573;-71
2021/09/04 06:55:33;;;;;;;58.17;2.80;;;12.40;1.00;;;;;;5071940;28;20501;-71
2021/09/04 06:58:00;;;;;;;59.73;3.80;;;12.50;1.00;;;;;;5075008;28;20486;-71
2021/09/04 07:00:27;;;;;;;58.57;2.77;;;12.60;1.00;;;;;;5076008;28;20475;-71
2021/09/04 07:02:54;;;;;;;58.37;2.70;;;12.70;1.00;;;;;;5075753;28;20553;-71
2021/09/04 07:05:21;;;;;;;58.07;2.70;;;12.80;1.00;;;;;;5076029;28;20524;-71
2021/09/04 07:07:47;;;;;;;58.27;2.70;;;12.80;1.00;;;;;;5075910;28;20447;-71
2021/09/04 07:10:16;;;;;;;58.40;2.90;;;12.90;1.00;;;;;;5075915;28;20453;-72
2021/09/04 07:12:42;;;;;;;58.50;3.63;;;13.00;1.00;;;;;;5076173;28;20681;-72
2021/09/04 07:15:10;;;;;;;58.80;3.10;;;13.10;1.00;;;;;;5075723;28;20477;-72
2021/09/04 07:17:37;;;;;;;58.80;3.10;;;13.20;1.00;;;;;;5075363;28;20535;-72
2021/09/04 07:20:05;;;;;;;58.60;3.10;;;13.30;1.00;;;;;;5075369;28;20497;-71
2021/09/04 07:22:32;;;;;;;58.87;3.20;;;13.40;1.00;;;;;;5075848;28;20459;-71
2021/09/04 07:24:59;;;;;;;58.37;2.93;;;13.50;1.00;;;;;;5075614;28;20534;-71
2021/09/04 07:27:27;;;;;;;58.47;2.83;;;13.60;1.00;;;;;;5075376;28;20443;-72
2021/09/04 07:29:54;;;;;;;58.17;2.80;;;13.70;1.00;;;;;;5075063;28;20538;-72
2021/09/04 07:32:20;;;;;;;58.67;3.00;;;13.80;1.00;;;;;;5075067;28;20490;-71
2021/09/04 07:34:47;;;;;;;58.33;3.10;;;13.90;1.00;;;;;;5075104;28;20483;-71
2021/09/04 07:37:14;;;;;;;58.13;2.90;;;14.00;1.00;;;;;;5075184;28;20447;-71
2021/09/04 07:39:41;;;;;;;58.37;3.13;;;14.20;1.00;;;;;;5074979;28;20455;-71
2021/09/04 07:42:08;;;;;;;58.57;2.80;;;14.30;1.00;;;;;;5075002;28;20446;-71
2021/09/04 07:44:36;;;;;;;58.17;2.90;;;14.50;1.00;;;;;;5074947;28;21034;-70
2021/09/04 07:47:03;;;;;;;59.30;3.50;;;14.60;1.00;;;;;;5075265;28;20475;-71
2021/09/04 07:49:30;;;;;;;58.53;3.00;;;14.70;1.00;;;;;;5074673;28;20980;-71
2021/09/04 07:51:57;;;;;;;58.27;3.00;;;14.80;1.00;;;;;;5074637;28;20943;-70
2021/09/04 07:54:24;;;;;;;58.37;2.60;;;15.00;1.00;;;;;;5074715;28;20589;-71
2021/09/04 07:56:51;;;;;;;60.20;4.10;;;15.10;1.00;;;;;;5074983;28;20534;-71
2021/09/04 07:59:18;;;;;;;59.87;3.77;;;15.30;1.00;;;;;;5074640;28;20543;-72
2021/09/04 08:01:46;;;;;;;58.57;3.00;;;15.50;1.00;;;;;;5075106;28;20543;-72
2021/09/04 08:04:14;;;;;;;58.60;2.93;;;15.60;1.00;;;;;;5074405;28;20716;-71
2021/09/04 08:06:41;;;;;;;58.30;3.10;;;15.70;1.00;;;;;;5074949;28;20502;-71
2021/09/04 08:09:08;;;;;;;58.60;3.00;;;15.80;1.00;;;;;;5074204;28;20443;-71
2021/09/04 08:11:35;;;;;;;58.40;2.80;;;15.90;1.00;;;;;;5074837;28;20529;-71
2021/09/04 08:14:02;;;;;;;58.40;2.80;;;16.10;1.00;;;;;;5074293;28;20491;-72
2021/09/04 08:16:29;;;;;;;58.80;3.10;;;16.20;1.00;;;;;;5074611;28;20537;-71
2021/09/04 08:18:57;;;;;;;58.40;2.80;;;16.30;1.00;;;;;;5077019;28;20476;-71
2021/09/04 08:21:24;;;;;;;58.23;2.80;;;16.50;1.00;;;;;;5078686;28;20480;-72
2021/09/04 08:23:51;;;;;;;58.07;2.80;;;16.60;1.00;;;;;;5078841;28;20464;-72
2021/09/04 08:26:18;;;;;;;58.80;3.50;;;16.80;1.00;;;;;;5074295;28;20444;-71
2021/09/04 08:28:45;;;;;;;58.97;3.97;;;16.90;1.00;;;;;;5074396;28;20531;-72
2021/09/04 08:31:13;;;;;;;58.20;2.63;;;17.10;1.00;;;;;;5074078;28;20458;-71
2021/09/04 08:33:39;;;;;;;58.47;2.77;;;17.30;1.00;;;;;;5073943;28;20581;-71
2021/09/04 08:36:08;;;;;;;58.70;3.23;;;17.40;1.00;;;;;;5074071;28;20461;-71
2021/09/04 08:38:35;;;;;;;58.37;3.30;;;17.60;1.00;;;;;;5074038;28;20541;-71
2021/09/04 08:41:02;;;;;;;58.37;2.47;;;17.80;1.00;;;;;;5074177;28;20541;-71
2021/09/04 08:43:29;;;;;;;57.83;2.80;;;17.90;1.00;;;;;;5074184;28;20462;-71
2021/09/04 08:45:56;;;;;;;59.20;3.10;;;18.00;1.00;;;;;;5073969;28;20450;-71
2021/09/04 08:48:24;;;;;;;57.97;2.87;;;18.20;1.00;;;;;;5073813;28;20453;-71
2021/09/04 08:50:52;;;;;;;60.50;3.07;;;18.30;1.00;;;;;;5074250;28;20536;-71
2021/09/04 08:53:21;;;;;;;58.07;2.77;;;18.50;1.00;;;;;;5073511;28;20492;-71
2021/09/04 08:55:48;;;;;;;57.87;2.87;;;18.60;1.00;;;;;;5073714;28;20545;-71
2021/09/04 08:58:15;;;;;;;58.03;2.60;;;18.80;1.00;;;;;;5073519;28;20478;-71
2021/09/04 09:00:44;;;;;;;57.77;2.67;;;19.00;1.00;;;;;;5073639;28;20880;-71
2021/09/04 09:03:21;;;;;;;58.47;3.13;;;19.20;1.00;;;;;;5073378;28;20852;-72
2021/09/04 09:05:47;;;;;;;58.30;2.83;;;19.40;1.00;;;;;;5073440;28;20535;-72
2021/09/04 09:08:16;;;;;;;58.37;2.97;;;19.60;1.00;;;;;;5073597;28;20444;-71
2021/09/04 09:10:46;;;;;;;60.27;3.50;;;19.80;1.00;;;;;;5073339;28;20613;-71
2021/09/04 09:13:17;;;;;;;58.60;3.10;;;20.00;1.00;;;;;;5073201;28;20487;-72
2021/09/04 09:15:44;;;;;;;58.57;3.33;;;20.30;1.00;;;;;;5073394;28;20544;-71
2021/09/04 09:18:12;;;;;;;58.07;2.80;;;20.40;1.00;;;;;;5073183;28;20706;-72
2021/09/04 09:20:40;;;;;;;59.33;3.20;;;20.60;1.00;;;;;;5072304;28;20487;-71
2021/09/04 09:23:10;;;;;;;58.03;2.30;;;20.70;1.00;;;;;;5073313;28;20555;-70
2021/09/04 09:25:38;;;;;;;58.07;2.50;;;20.90;1.00;;;;;;5073621;28;20532;-71
2021/09/04 09:28:10;;;;;;;58.37;2.90;;;21.10;1.00;;;;;;5072952;28;20456;-72
2021/09/04 09:30:39;;;;;;;58.27;2.80;;;21.20;1.00;;;;;;5072886;28;20480;-71
2021/09/04 09:33:07;;;;;;;58.90;3.13;;;21.40;1.00;;;;;;5073089;28;20576;-69
2021/09/04 09:35:40;;;;;;;58.47;2.70;;;21.70;1.00;;;;;;5073058;28;20452;-70
2021/09/04 09:38:08;;;;;;;58.27;3.00;;;22.00;1.00;;;;;;5072998;28;20534;-69
2021/09/04 09:40:37;;;;;;;58.50;3.17;;;22.20;1.00;;;;;;5072570;28;20457;-69
2021/09/04 09:43:15;;;;;;;58.27;2.60;;;22.50;1.00;;;;;;5072603;28;20468;-69
2021/09/04 09:45:48;;;;;;;57.90;2.60;;;22.80;1.00;;;;;;5072912;28;20498;-69
2021/09/04 09:48:19;;;;;;;58.17;2.50;;;23.10;1.00;;;;;;5072510;28;20486;-69
2021/09/04 09:50:46;;;;;;;58.23;3.30;;;23.40;1.00;;;;;;5072353;28;20447;-72
2021/09/04 09:53:13;;;;;;;58.27;2.67;;;23.80;1.00;;;;;;5072410;28;20487;-72
2021/09/04 09:55:45;;;;;;;58.17;2.70;;;24.10;1.00;;;;;;5072503;28;20530;-71
2021/09/04 09:58:14;;;;;;;58.90;3.10;;;24.40;1.00;;;;;;5072337;28;20453;-72
2021/09/04 10:00:42;;;;;;;58.90;2.80;;;25.00;1.00;;;;;;5072298;28;20531;-71
2021/09/04 10:03:10;;;;;;;58.37;2.60;;;26.20;1.00;;;;;;5072075;28;21006;-69
2021/09/04 10:05:38;;;;;;;58.20;2.73;;;27.80;1.00;;;;;;5072410;28;20452;-69
2021/09/04 10:08:05;;;;;;;58.30;2.87;;;29.30;1.00;;;;;;5072123;28;20486;-69
2021/09/04 10:10:34;;;;;;;57.77;2.40;;;30.40;1.00;;;;;;5072180;28;20938;-69
2021/09/04 10:13:02;;;;;;;58.07;2.50;;;31.40;1.00;;;;;;5072055;28;20579;-69
2021/09/04 10:15:32;;;;;;;57.70;2.60;;;32.00;1.00;;;;;;5072237;28;20473;-69
2021/09/04 10:18:02;;;;;;;57.60;2.80;;;32.40;1.00;;;;;;5072768;28;20459;-69
2021/09/04 10:20:30;;;;;;;57.73;2.53;;;32.80;1.00;;;;;;5072024;28;20453;-70
2021/09/04 10:23:10;;;;;;;57.77;2.80;;;33.50;1.00;;;;;;5071925;28;20554;-70
2021/09/04 10:25:37;;;;;;;57.20;2.20;;;34.10;1.00;;;;;;5072208;28;20450;-69
2021/09/04 10:28:04;;;;;;;57.30;2.60;;;34.50;1.00;;;;;;5072082;28;20967;-71
2021/09/04 10:30:34;;;;;;;57.90;2.83;;;34.90;1.00;;;;;;5071983;28;20451;-70
2021/09/04 10:33:06;;;;;;;57.70;2.63;;;35.50;1.00;;;;;;5071965;28;20999;-71
2021/09/04 10:35:41;;;;;;;57.47;2.40;;;35.90;1.00;;;;;;5071829;28;20534;-71
2021/09/04 10:38:26;;;;;;;58.00;2.50;;;36.00;1.00;;;;;;5072013;28;20451;-70
2021/09/04 10:41:14;;;;;;;57.57;2.63;;;36.30;1.00;;;;;;5069162;28;20459;-71
2021/09/04 10:43:43;;;;;;;57.50;2.60;;;36.40;1.00;;;;;;5071812;28;20463;-71
2021/09/04 10:46:13;;;;;;;57.40;2.20;;;36.70;1.00;;;;;;5071889;28;20451;-68
2021/09/04 10:48:40;;;;;;;57.97;2.70;;;37.00;1.00;;;;;;5072142;28;20439;-68
2021/09/04 10:51:09;;;;;;;57.50;2.70;;;36.90;1.00;;;;;;5071828;28;20444;-68
2021/09/04 10:53:44;;;;;;;56.70;2.37;;;37.10;1.00;;;;;;5071969;28;20479;-68
2021/09/04 10:56:19;;;;;;;56.67;2.30;;;37.30;1.00;;;;;;5071723;28;20442;-68
2021/09/04 10:58:46;;;;;;;57.20;2.37;;;37.50;1.00;;;;;;5071888;28;20445;-69
2021/09/04 11:01:19;;;;;;;57.10;2.20;;;37.60;1.00;;;;;;5071758;28;20535;-69
2021/09/04 11:03:53;;;;;;;57.87;2.60;;;37.60;1.00;;;;;;5071781;28;20487;-69
2021/09/04 11:06:21;;;;;;;56.97;2.20;;;37.70;1.00;;;;;;5071606;28;20949;-69
2021/09/04 11:08:49;;;;;;;57.80;2.70;;;37.70;1.00;;;;;;5071482;28;20880;-69
2021/09/04 11:11:28;;;;;;;56.80;2.37;;;37.80;1.00;;;;;;5071577;28;20451;-69
2021/09/04 11:13:56;;;;;;;57.00;2.40;;;37.80;1.00;;;;;;5071413;28;20482;-69
2021/09/04 11:16:52;;;;;;;57.20;2.20;;;38.10;1.00;;;;;;5071544;28;20451;-69
2021/09/04 11:19:23;;;;;;;57.00;2.57;;;38.40;1.00;;;;;;5071348;28;20454;-69
2021/09/04 11:21:53;;;;;;;57.03;2.10;;;38.40;1.00;;;;;;5071439;28;20450;-69
2021/09/04 11:24:23;;;;;;;57.07;2.10;;;38.30;1.00;;;;;;5071568;28;20824;-69
2021/09/04 11:26:52;;;;;;;56.97;2.20;;;38.30;1.00;;;;;;5071915;28;20479;-68
2021/09/04 11:29:19;;;;;;;58.13;3.07;;;38.30;1.00;;;;;;5071286;28;20473;-69
2021/09/04 11:31:59;;;;;;;57.80;2.47;;;38.70;1.00;;;;;;5071599;28;20896;-69
2021/09/04 11:34:34;;;;;;;57.50;2.50;;;39.20;1.00;;;;;;5071462;28;20565;-69
2021/09/04 11:37:21;;;;;;;57.10;2.40;;;39.50;1.00;;;;;;5071306;28;20538;-69
2021/09/04 11:39:49;;;;;;;57.40;2.43;;;39.70;1.00;;;;;;5071167;28;20447;-70
2021/09/04 11:42:17;;;;;;;57.07;2.43;;;39.70;1.00;;;;;;5071458;28;20473;-70
2021/09/04 11:44:49;;;;;;;56.40;2.30;;;39.50;1.00;;;;;;5075220;28;20446;-71
2021/09/04 11:47:18;;;;;;;57.10;2.20;;;39.30;1.00;;;;;;5075038;28;20443;-71
2021/09/04 11:49:47;;;;;;;56.97;2.20;;;39.50;1.00;;;;;;5074868;28;20542;-70
2021/09/04 11:52:22;;;;;;;57.10;2.33;;;39.80;1.00;;;;;;5074672;28;20458;-69
2021/09/04 11:54:49;;;;;;;56.87;2.70;;;39.90;1.00;;;;;;5074963;28;20505;-69
2021/09/04 11:57:29;;;;;;;57.20;2.83;;;39.70;1.00;;;;;;5075000;28;20444;-70
2021/09/04 12:00:01;;;;;;;57.20;2.27;;;39.90;1.00;;;;;;5074889;28;20419;-70
2021/09/04 12:02:29;;;;;;;56.97;2.10;;;39.90;1.00;;;;;;5074370;28;20550;-71
2021/09/04 12:05:02;;;;;;;56.90;2.30;;;40.00;1.00;;;;;;5074837;28;20562;-70
2021/09/04 12:07:29;;;;;;;56.80;2.20;;;39.90;1.00;;;;;;5074790;28;20449;-71
2021/09/04 12:09:57;;;;;;;56.90;2.20;;;39.70;1.00;;;;;;5074301;28;20546;-70
2021/09/04 12:12:28;;;;;;;57.70;2.97;;;40.00;1.00;;;;;;5074526;28;20554;-69
2021/09/04 12:14:56;;;;;;;56.97;2.60;;;40.30;1.00;;;;;;5074404;28;20531;-69
2021/09/04 12:17:24;;;;;;;57.20;2.57;;;40.20;1.00;;;;;;5074374;28;20897;-70
2021/09/04 12:19:53;;;;;;;57.07;2.60;;;40.10;1.00;;;;;;5074297;28;20479;-70
2021/09/04 12:22:30;;;;;;;57.00;2.77;;;40.10;1.00;;;;;;5074515;28;20474;-70
2021/09/04 12:24:57;;;;;;;56.57;2.30;;;40.40;1.00;;;;;;5074308;28;20927;-70
2021/09/04 12:27:39;;;;;;;56.87;2.50;;;40.70;1.00;;;;;;5074028;28;20542;-70
2021/09/04 12:30:08;;;;;;;57.27;2.67;;;40.90;1.00;;;;;;5074268;28;20526;-69
2021/09/04 12:32:36;;;;;;;56.70;2.47;;;41.00;1.00;;;;;;5074338;28;20524;-70
2021/09/04 12:35:06;;;;;;;57.07;3.13;;;40.80;1.00;;;;;;5074171;28;20478;-70
2021/09/04 12:37:33;;;;;;;57.00;2.63;;;40.80;1.00;;;;;;5074356;28;20530;-70
2021/09/04 12:40:11;;;;;;;57.30;2.60;;;41.20;1.00;;;;;;5074118;28;20485;-70
2021/09/04 12:42:38;;;;;;;56.53;2.37;;;41.50;1.00;;;;;;5073721;28;20469;-70
2021/09/04 12:45:07;;;;;;;56.67;2.70;;;41.50;1.00;;;;;;5074034;28;20475;-70
2021/09/04 12:47:42;;;;;;;56.67;2.80;;;41.60;1.00;;;;;;5073962;28;20898;-70
2021/09/04 12:50:20;;;;;;;56.57;2.23;;;41.50;1.00;;;;;;5074050;28;20431;-70
2021/09/04 12:52:48;;;;;;;57.67;2.73;;;41.20;1.00;;;;;;5073659;28;20467;-70